METAR Data
IDs: Format: Raw Decoded Include TAF

Data at: 1452 UTC 10 Aug 2022

KUKI 101356Z AUTO 00000KT 10SM CLR 11/08 A3007 RMK AO2 SLP176 T01110083
KUKI 101256Z AUTO 00000KT 10SM CLR 12/08 A3004 RMK AO2 SLP167 T01170083
KUKI 101156Z AUTO 00000KT 10SM CLR 13/09 A3003 RMK AO2 SLP164 T01330089 10172 20122 53001
KUKI 101056Z AUTO 00000KT 10SM CLR 13/09 A3003 RMK AO2 SLP162 T01330094
KUKI 100956Z AUTO 00000KT 10SM CLR 14/09 A3003 RMK AO2 SLP162 T01390094
KUKI 100856Z AUTO 00000KT 10SM CLR 15/09 A3003 RMK AO2 SLP162 T01500094 50004
KUKI 100756Z AUTO 00000KT 10SM CLR 16/10 A3003 RMK AO2 SLP163 T01560100 403110117
KUKI 100656Z AUTO 00000KT 10SM CLR 17/10 A3003 RMK AO2 SLP161 T01670100
KUKI 100556Z AUTO 00000KT 10SM CLR 17/10 A3002 RMK AO2 SLP159 T01720100 10272 20172 53018
KUKI 100456Z AUTO VRB04KT 10SM CLR 19/11 A3000 RMK AO2 SLP154 T01890106
KUKI 100356Z AUTO VRB04KT 10SM CLR 20/11 A2998 RMK AO2 SLP145 T02000111
KUKI 100256Z AUTO 34004KT 10SM CLR 22/11 A2997 RMK AO2 SLP141 T02170106 53013
KUKI 100156Z AUTO 30008KT 10SM CLR 24/10 A2994 RMK AO2 SLP133 T02440100
KUKI 100056Z AUTO 27012G21KT 10SM CLR 26/10 A2994 RMK AO2 SLP132 T02610100
KUKI 092356Z AUTO 28009G16KT 10SM CLR 27/11 A2993 RMK AO2 PK WND 27026/2333 SLP127 T02720106 10311 20222 55001
KUKI 092256Z AUTO 22009KT 10SM CLR 30/11 A2991 RMK AO2 SLP120 T03000106
KUKI 092156Z AUTO 14006KT 10SM CLR 31/09 A2992 RMK AO2 SLP124 T03060094
KUKI 092056Z AUTO 18009KT 10SM CLR 30/10 A2993 RMK AO2 SLP128 T03000100 58013
KUKI 091956Z AUTO VRB05KT 10SM CLR 28/11 A2994 RMK AO2 SLP131 T02780111
KUKI 091856Z AUTO 12005KT 10SM CLR 25/12 A2996 RMK AO2 SLP138 T02500117
KUKI 091756Z AUTO 00000KT 10SM CLR 23/12 A2997 RMK AO2 SLP141 T02280117 10228 20117 58007
KUKI 091656Z AUTO 00000KT 10SM CLR 20/12 A2999 RMK AO2 SLP147 T02000117
KUKI 091556Z AUTO 00000KT 10SM CLR 18/11 A2999 RMK AO2 SLP149 T01780111
KUKI 091456Z AUTO 00000KT 10SM CLR 15/10 A2999 RMK AO2 SLP149 T01500100 51008
KUKI 091356Z AUTO 00000KT 10SM CLR 12/09 A2999 RMK AO2 SLP148 T01220089
KUKI 091256Z AUTO 00000KT 10SM CLR 12/08 A2998 RMK AO2 SLP145 T01220083
KUKI 091156Z AUTO 00000KT 10SM CLR 13/09 A2997 RMK AO2 SLP140 T01330094 10189 20122 53002
KUKI 091056Z AUTO 00000KT 10SM CLR 13/09 A2996 RMK AO2 SLP138 T01330094
KUKI 090956Z AUTO 00000KT 10SM CLR 14/10 A2996 RMK AO2 SLP137 T01440100
KUKI 090856Z AUTO 00000KT 10SM CLR 14/11 A2996 RMK AO2 SLP138 T01440106 58001
KUKI 090756Z AUTO 00000KT 10SM CLR 16/11 A2997 RMK AO2 SLP140 T01610106 403220117
KUKI 090656Z AUTO 00000KT 10SM CLR 18/11 A2996 RMK AO2 SLP138 T01780106
KUKI 090556Z AUTO 00000KT 10SM CLR 19/11 A2996 RMK AO2 SLP139 T01890111 10317 20183 51012
KUKI 090456Z AUTO 36005KT 10SM CLR 21/11 A2996 RMK AO2 SLP140 T02060111
KUKI 090356Z AUTO 02005KT 10SM CLR 22/11 A2995 RMK AO2 SLP135 T02170111
KUKI 090256Z AUTO 03005KT 10SM CLR 24/11 A2993 RMK AO2 SLP128 T02390111 53006